sensor_id;sensor_type;location;lat;lon;timestamp;P1;durP1;ratioP1;P2;durP2;ratioP2
7879;SDS011;3985;49.366;2.738;2023-07-31T00:00:53;2.00;;;2.00;;
7879;SDS011;3985;49.366;2.738;2023-07-31T00:03:20;1.80;;;1.80;;
7879;SDS011;3985;49.366;2.738;2023-07-31T00:05:47;2.60;;;2.60;;
7879;SDS011;3985;49.366;2.738;2023-07-31T00:08:14;1.80;;;1.80;;
7879;SDS011;3985;49.366;2.738;2023-07-31T00:10:42;0.80;;;0.80;;
7879;SDS011;3985;49.366;2.738;2023-07-31T00:13:09;2.00;;;2.00;;
7879;SDS011;3985;49.366;2.738;2023-07-31T00:15:38;5.00;;;3.60;;
7879;SDS011;3985;49.366;2.738;2023-07-31T00:18:05;1.00;;;1.00;;
7879;SDS011;3985;49.366;2.738;2023-07-31T00:20:32;3.00;;;2.00;;
7879;SDS011;3985;49.366;2.738;2023-07-31T00:23:00;1.80;;;1.80;;
7879;SDS011;3985;49.366;2.738;2023-07-31T00:25:28;2.00;;;2.00;;
7879;SDS011;3985;49.366;2.738;2023-07-31T00:27:55;2.80;;;2.80;;
7879;SDS011;3985;49.366;2.738;2023-07-31T00:30:23;2.00;;;2.00;;
7879;SDS011;3985;49.366;2.738;2023-07-31T00:32:53;2.60;;;2.00;;
7879;SDS011;3985;49.366;2.738;2023-07-31T00:35:21;2.80;;;2.80;;
7879;SDS011;3985;49.366;2.738;2023-07-31T00:37:48;3.20;;;3.20;;
7879;SDS011;3985;49.366;2.738;2023-07-31T00:40:16;1.80;;;1.80;;
7879;SDS011;3985;49.366;2.738;2023-07-31T00:42:43;2.20;;;2.20;;
7879;SDS011;3985;49.366;2.738;2023-07-31T00:45:10;1.80;;;1.80;;
7879;SDS011;3985;49.366;2.738;2023-07-31T00:47:37;0.80;;;0.80;;
7879;SDS011;3985;49.366;2.738;2023-07-31T00:50:07;1.80;;;1.80;;
7879;SDS011;3985;49.366;2.738;2023-07-31T00:52:35;3.00;;;3.00;;
7879;SDS011;3985;49.366;2.738;2023-07-31T00:55:03;1.80;;;1.80;;
7879;SDS011;3985;49.366;2.738;2023-07-31T00:57:30;1.40;;;1.40;;
7879;SDS011;3985;49.366;2.738;2023-07-31T00:59:59;3.20;;;3.20;;
7879;SDS011;3985;49.366;2.738;2023-07-31T01:02:26;1.60;;;1.60;;
7879;SDS011;3985;49.366;2.738;2023-07-31T01:04:53;3.20;;;2.80;;
7879;SDS011;3985;49.366;2.738;2023-07-31T01:07:27;2.60;;;2.00;;
7879;SDS011;3985;49.366;2.738;2023-07-31T01:10:02;1.20;;;1.20;;
7879;SDS011;3985;49.366;2.738;2023-07-31T01:12:33;2.60;;;2.60;;
7879;SDS011;3985;49.366;2.738;2023-07-31T01:15:02;3.60;;;2.20;;
7879;SDS011;3985;49.366;2.738;2023-07-31T01:17:31;2.00;;;1.80;;
7879;SDS011;3985;49.366;2.738;2023-07-31T01:19:59;2.40;;;2.40;;
7879;SDS011;3985;49.366;2.738;2023-07-31T01:22:32;2.20;;;2.20;;
7879;SDS011;3985;49.366;2.738;2023-07-31T01:25:12;3.00;;;3.00;;
7879;SDS011;3985;49.366;2.738;2023-07-31T01:27:50;4.20;;;2.80;;
7879;SDS011;3985;49.366;2.738;2023-07-31T01:30:24;3.80;;;3.80;;
7879;SDS011;3985;49.366;2.738;2023-07-31T01:32:54;2.80;;;2.80;;
7879;SDS011;3985;49.366;2.738;2023-07-31T01:35:23;3.20;;;2.00;;
7879;SDS011;3985;49.366;2.738;2023-07-31T01:37:52;2.00;;;2.00;;
7879;SDS011;3985;49.366;2.738;2023-07-31T01:40:19;3.20;;;3.20;;
7879;SDS011;3985;49.366;2.738;2023-07-31T01:42:48;3.60;;;2.80;;
7879;SDS011;3985;49.366;2.738;2023-07-31T01:45:15;2.00;;;2.00;;
7879;SDS011;3985;49.366;2.738;2023-07-31T01:47:43;1.80;;;1.80;;
7879;SDS011;3985;49.366;2.738;2023-07-31T01:50:10;5.00;;;4.00;;
7879;SDS011;3985;49.366;2.738;2023-07-31T01:52:37;1.80;;;1.80;;
7879;SDS011;3985;49.366;2.738;2023-07-31T01:55:05;2.80;;;2.80;;
7879;SDS011;3985;49.366;2.738;2023-07-31T01:57:33;1.80;;;1.80;;
7879;SDS011;3985;49.366;2.738;2023-07-31T02:00:02;4.00;;;2.40;;
7879;SDS011;3985;49.366;2.738;2023-07-31T02:02:30;2.60;;;2.60;;
7879;SDS011;3985;49.366;2.738;2023-07-31T02:04:57;3.20;;;2.00;;
7879;SDS011;3985;49.366;2.738;2023-07-31T02:07:25;2.00;;;2.00;;
7879;SDS011;3985;49.366;2.738;2023-07-31T02:09:52;0.80;;;0.80;;
7879;SDS011;3985;49.366;2.738;2023-07-31T02:12:19;3.20;;;3.20;;
7879;SDS011;3985;49.366;2.738;2023-07-31T02:14:47;2.60;;;2.60;;
7879;SDS011;3985;49.366;2.738;2023-07-31T02:17:15;3.20;;;2.80;;
7879;SDS011;3985;49.366;2.738;2023-07-31T02:19:42;2.00;;;2.00;;
7879;SDS011;3985;49.366;2.738;2023-07-31T02:22:10;2.60;;;1.80;;
7879;SDS011;3985;49.366;2.738;2023-07-31T02:24:40;1.20;;;1.20;;
7879;SDS011;3985;49.366;2.738;2023-07-31T02:27:10;2.20;;;2.20;;
7879;SDS011;3985;49.366;2.738;2023-07-31T02:29:37;2.00;;;2.00;;
7879;SDS011;3985;49.366;2.738;2023-07-31T02:32:05;1.60;;;1.60;;
7879;SDS011;3985;49.366;2.738;2023-07-31T02:34:34;1.80;;;1.80;;
7879;SDS011;3985;49.366;2.738;2023-07-31T02:37:01;1.20;;;1.20;;
7879;SDS011;3985;49.366;2.738;2023-07-31T02:39:28;2.80;;;1.60;;
7879;SDS011;3985;49.366;2.738;2023-07-31T02:41:55;3.00;;;1.20;;
7879;SDS011;3985;49.366;2.738;2023-07-31T02:44:23;1.60;;;1.60;;
7879;SDS011;3985;49.366;2.738;2023-07-31T02:46:50;2.00;;;1.80;;
7879;SDS011;3985;49.366;2.738;2023-07-31T02:49:17;2.00;;;2.00;;
7879;SDS011;3985;49.366;2.738;2023-07-31T02:51:46;1.80;;;1.80;;
7879;SDS011;3985;49.366;2.738;2023-07-31T02:54:13;1.20;;;1.20;;
7879;SDS011;3985;49.366;2.738;2023-07-31T02:56:43;2.20;;;2.00;;
7879;SDS011;3985;49.366;2.738;2023-07-31T02:59:10;2.40;;;2.40;;
7879;SDS011;3985;49.366;2.738;2023-07-31T03:01:38;4.40;;;2.80;;
7879;SDS011;3985;49.366;2.738;2023-07-31T03:04:05;2.60;;;1.20;;
7879;SDS011;3985;49.366;2.738;2023-07-31T03:06:33;2.00;;;2.00;;
7879;SDS011;3985;49.366;2.738;2023-07-31T03:09:01;2.00;;;2.00;;
7879;SDS011;3985;49.366;2.738;2023-07-31T03:11:29;2.00;;;2.00;;
7879;SDS011;3985;49.366;2.738;2023-07-31T03:13:56;3.60;;;2.00;;
7879;SDS011;3985;49.366;2.738;2023-07-31T03:16:23;2.00;;;2.00;;
7879;SDS011;3985;49.366;2.738;2023-07-31T03:18:50;2.80;;;2.80;;
7879;SDS011;3985;49.366;2.738;2023-07-31T03:21:18;2.60;;;1.80;;
7879;SDS011;3985;49.366;2.738;2023-07-31T03:23:45;1.00;;;1.00;;
7879;SDS011;3985;49.366;2.738;2023-07-31T03:26:14;2.80;;;2.80;;
7879;SDS011;3985;49.366;2.738;2023-07-31T03:28:41;2.00;;;2.00;;
7879;SDS011;3985;49.366;2.738;2023-07-31T03:31:09;1.20;;;1.20;;
7879;SDS011;3985;49.366;2.738;2023-07-31T03:33:37;1.20;;;1.20;;
7879;SDS011;3985;49.366;2.738;2023-07-31T03:36:05;3.00;;;3.00;;
7879;SDS011;3985;49.366;2.738;2023-07-31T03:38:33;3.20;;;2.40;;
7879;SDS011;3985;49.366;2.738;2023-07-31T03:41:00;0.00;;;0.00;;
7879;SDS011;3985;49.366;2.738;2023-07-31T03:43:29;3.00;;;2.60;;
7879;SDS011;3985;49.366;2.738;2023-07-31T03:45:56;2.00;;;2.00;;
7879;SDS011;3985;49.366;2.738;2023-07-31T03:48:23;1.00;;;1.00;;
7879;SDS011;3985;49.366;2.738;2023-07-31T03:50:50;1.00;;;1.00;;
7879;SDS011;3985;49.366;2.738;2023-07-31T03:53:18;1.60;;;1.60;;
7879;SDS011;3985;49.366;2.738;2023-07-31T03:55:45;2.20;;;1.60;;
7879;SDS011;3985;49.366;2.738;2023-07-31T03:58:12;1.60;;;1.60;;
7879;SDS011;3985;49.366;2.738;2023-07-31T04:00:41;2.00;;;2.00;;
7879;SDS011;3985;49.366;2.738;2023-07-31T04:03:08;0.80;;;0.80;;
7879;SDS011;3985;49.366;2.738;2023-07-31T04:05:37;1.20;;;1.20;;
7879;SDS011;3985;49.366;2.738;2023-07-31T04:08:05;1.00;;;1.00;;
7879;SDS011;3985;49.366;2.738;2023-07-31T04:10:33;1.00;;;1.00;;
7879;SDS011;3985;49.366;2.738;2023-07-31T04:13:00;1.20;;;0.80;;
7879;SDS011;3985;49.366;2.738;2023-07-31T04:15:27;0.80;;;0.80;;
7879;SDS011;3985;49.366;2.738;2023-07-31T04:17:56;1.00;;;1.00;;
7879;SDS011;3985;49.366;2.738;2023-07-31T04:20:23;2.00;;;2.00;;
7879;SDS011;3985;49.366;2.738;2023-07-31T04:22:51;5.40;;;2.00;;
7879;SDS011;3985;49.366;2.738;2023-07-31T04:25:18;2.00;;;2.00;;
7879;SDS011;3985;49.366;2.738;2023-07-31T04:27:45;2.00;;;1.00;;
7879;SDS011;3985;49.366;2.738;2023-07-31T04:30:13;4.40;;;2.80;;
7879;SDS011;3985;49.366;2.738;2023-07-31T04:32:40;1.40;;;0.80;;
7879;SDS011;3985;49.366;2.738;2023-07-31T04:35:11;1.00;;;1.00;;
7879;SDS011;3985;49.366;2.738;2023-07-31T04:37:38;2.20;;;2.20;;
7879;SDS011;3985;49.366;2.738;2023-07-31T04:40:07;1.00;;;1.00;;
7879;SDS011;3985;49.366;2.738;2023-07-31T04:42:34;1.40;;;1.40;;
7879;SDS011;3985;49.366;2.738;2023-07-31T04:45:02;3.40;;;1.80;;
7879;SDS011;3985;49.366;2.738;2023-07-31T04:47:30;1.80;;;1.00;;
7879;SDS011;3985;49.366;2.738;2023-07-31T04:49:57;2.80;;;2.00;;
7879;SDS011;3985;49.366;2.738;2023-07-31T04:52:26;2.00;;;2.00;;
7879;SDS011;3985;49.366;2.738;2023-07-31T04:54:53;0.80;;;0.80;;
7879;SDS011;3985;49.366;2.738;2023-07-31T04:57:20;3.00;;;1.40;;
7879;SDS011;3985;49.366;2.738;2023-07-31T04:59:48;0.00;;;0.00;;
7879;SDS011;3985;49.366;2.738;2023-07-31T05:02:15;1.00;;;1.00;;
7879;SDS011;3985;49.366;2.738;2023-07-31T05:04:43;2.00;;;2.00;;
7879;SDS011;3985;49.366;2.738;2023-07-31T05:07:10;1.00;;;1.00;;
7879;SDS011;3985;49.366;2.738;2023-07-31T05:09:39;2.20;;;2.20;;
7879;SDS011;3985;49.366;2.738;2023-07-31T05:12:06;0.60;;;0.60;;
7879;SDS011;3985;49.366;2.738;2023-07-31T05:14:34;3.50;;;3.00;;
7879;SDS011;3985;49.366;2.738;2023-07-31T05:17:01;1.40;;;1.00;;
7879;SDS011;3985;49.366;2.738;2023-07-31T05:19:29;2.25;;;2.25;;
7879;SDS011;3985;49.366;2.738;2023-07-31T05:21:56;2.75;;;1.50;;
7879;SDS011;3985;49.366;2.738;2023-07-31T05:24:23;1.00;;;1.00;;
7879;SDS011;3985;49.366;2.738;2023-07-31T05:26:52;3.00;;;2.00;;
7879;SDS011;3985;49.366;2.738;2023-07-31T05:29:19;3.00;;;2.00;;
7879;SDS011;3985;49.366;2.738;2023-07-31T05:31:47;3.50;;;2.00;;
7879;SDS011;3985;49.366;2.738;2023-07-31T05:34:14;2.75;;;2.00;;
7879;SDS011;3985;49.366;2.738;2023-07-31T05:36:41;2.00;;;2.00;;
7879;SDS011;3985;49.366;2.738;2023-07-31T05:39:08;2.00;;;2.00;;
7879;SDS011;3985;49.366;2.738;2023-07-31T05:41:36;1.75;;;1.75;;
7879;SDS011;3985;49.366;2.738;2023-07-31T05:44:04;2.00;;;2.00;;
7879;SDS011;3985;49.366;2.738;2023-07-31T05:46:32;2.75;;;2.75;;
7879;SDS011;3985;49.366;2.738;2023-07-31T05:48:59;1.50;;;1.00;;
7879;SDS011;3985;49.366;2.738;2023-07-31T05:51:27;4.50;;;3.75;;
7879;SDS011;3985;49.366;2.738;2023-07-31T05:53:54;2.00;;;2.00;;
7879;SDS011;3985;49.366;2.738;2023-07-31T05:56:21;2.50;;;2.50;;
7879;SDS011;3985;49.366;2.738;2023-07-31T05:58:49;3.00;;;3.00;;
7879;SDS011;3985;49.366;2.738;2023-07-31T06:01:21;1.00;;;0.50;;
7879;SDS011;3985;49.366;2.738;2023-07-31T06:03:48;3.00;;;3.00;;
7879;SDS011;3985;49.366;2.738;2023-07-31T06:06:15;3.25;;;2.00;;
7879;SDS011;3985;49.366;2.738;2023-07-31T06:08:42;3.75;;;3.25;;
7879;SDS011;3985;49.366;2.738;2023-07-31T06:11:09;2.50;;;2.50;;
7879;SDS011;3985;49.366;2.738;2023-07-31T06:13:37;3.50;;;3.50;;
7879;SDS011;3985;49.366;2.738;2023-07-31T06:16:04;6.00;;;4.75;;
7879;SDS011;3985;49.366;2.738;2023-07-31T06:18:33;3.00;;;3.00;;
7879;SDS011;3985;49.366;2.738;2023-07-31T06:21:01;2.50;;;2.50;;
7879;SDS011;3985;49.366;2.738;2023-07-31T06:23:28;3.00;;;3.00;;
7879;SDS011;3985;49.366;2.738;2023-07-31T06:25:55;3.25;;;3.25;;
7879;SDS011;3985;49.366;2.738;2023-07-31T06:28:26;3.75;;;2.75;;
7879;SDS011;3985;49.366;2.738;2023-07-31T06:30:55;3.00;;;3.00;;
7879;SDS011;3985;49.366;2.738;2023-07-31T06:33:22;2.75;;;2.00;;
7879;SDS011;3985;49.366;2.738;2023-07-31T06:35:51;3.00;;;3.00;;
7879;SDS011;3985;49.366;2.738;2023-07-31T06:38:19;3.00;;;3.00;;
7879;SDS011;3985;49.366;2.738;2023-07-31T06:40:47;4.50;;;3.50;;
7879;SDS011;3985;49.366;2.738;2023-07-31T06:43:15;2.75;;;2.75;;
7879;SDS011;3985;49.366;2.738;2023-07-31T06:45:42;2.50;;;2.00;;
7879;SDS011;3985;49.366;2.738;2023-07-31T06:48:10;3.00;;;2.75;;
7879;SDS011;3985;49.366;2.738;2023-07-31T06:50:37;4.00;;;3.00;;
7879;SDS011;3985;49.366;2.738;2023-07-31T06:53:06;5.00;;;3.75;;
7879;SDS011;3985;49.366;2.738;2023-07-31T06:55:33;8.00;;;4.75;;
7879;SDS011;3985;49.366;2.738;2023-07-31T06:58:01;4.00;;;4.00;;
7879;SDS011;3985;49.366;2.738;2023-07-31T07:00:28;3.00;;;3.00;;
7879;SDS011;3985;49.366;2.738;2023-07-31T07:02:56;5.25;;;3.25;;
7879;SDS011;3985;49.366;2.738;2023-07-31T07:05:23;4.50;;;3.25;;
7879;SDS011;3985;49.366;2.738;2023-07-31T07:07:50;4.00;;;4.00;;
7879;SDS011;3985;49.366;2.738;2023-07-31T07:10:19;7.75;;;4.50;;
7879;SDS011;3985;49.366;2.738;2023-07-31T07:12:46;4.75;;;3.00;;
7879;SDS011;3985;49.366;2.738;2023-07-31T07:15:13;4.25;;;3.75;;
7879;SDS011;3985;49.366;2.738;2023-07-31T07:17:41;6.75;;;3.75;;
7879;SDS011;3985;49.366;2.738;2023-07-31T07:20:08;10.25;;;4.50;;
7879;SDS011;3985;49.366;2.738;2023-07-31T07:22:35;5.75;;;4.25;;
7879;SDS011;3985;49.366;2.738;2023-07-31T07:25:02;5.25;;;5.25;;
7879;SDS011;3985;49.366;2.738;2023-07-31T07:27:31;4.25;;;3.75;;
7879;SDS011;3985;49.366;2.738;2023-07-31T07:29:59;2.40;;;2.40;;
7879;SDS011;3985;49.366;2.738;2023-07-31T07:32:26;5.00;;;5.00;;
7879;SDS011;3985;49.366;2.738;2023-07-31T07:34:53;8.75;;;6.00;;
7879;SDS011;3985;49.366;2.738;2023-07-31T07:37:22;6.00;;;6.00;;
7879;SDS011;3985;49.366;2.738;2023-07-31T07:39:49;6.25;;;6.00;;
7879;SDS011;3985;49.366;2.738;2023-07-31T07:42:17;4.75;;;4.75;;
7879;SDS011;3985;49.366;2.738;2023-07-31T07:44:46;6.25;;;6.25;;
7879;SDS011;3985;49.366;2.738;2023-07-31T07:47:13;7.20;;;5.00;;
7879;SDS011;3985;49.366;2.738;2023-07-31T07:49:41;5.40;;;5.00;;
7879;SDS011;3985;49.366;2.738;2023-07-31T07:52:08;8.50;;;5.50;;
7879;SDS011;3985;49.366;2.738;2023-07-31T07:54:35;4.00;;;4.00;;
7879;SDS011;3985;49.366;2.738;2023-07-31T07:57:03;6.00;;;5.00;;
7879;SDS011;3985;49.366;2.738;2023-07-31T07:59:30;7.20;;;5.00;;
7879;SDS011;3985;49.366;2.738;2023-07-31T08:01:59;5.60;;;5.60;;
7879;SDS011;3985;49.366;2.738;2023-07-31T08:04:26;1.80;;;1.80;;
7879;SDS011;3985;49.366;2.738;2023-07-31T08:06:53;8.40;;;6.20;;
7879;SDS011;3985;49.366;2.738;2023-07-31T08:09:21;9.25;;;4.00;;
7879;SDS011;3985;49.366;2.738;2023-07-31T08:11:48;5.60;;;4.80;;
7879;SDS011;3985;49.366;2.738;2023-07-31T08:14:15;9.00;;;5.25;;
7879;SDS011;3985;49.366;2.738;2023-07-31T08:16:42;5.00;;;5.00;;
7879;SDS011;3985;49.366;2.738;2023-07-31T08:19:11;4.60;;;4.60;;
7879;SDS011;3985;49.366;2.738;2023-07-31T08:21:38;6.80;;;4.80;;
7879;SDS011;3985;49.366;2.738;2023-07-31T08:24:05;4.00;;;4.00;;
7879;SDS011;3985;49.366;2.738;2023-07-31T08:26:33;5.80;;;5.80;;
7879;SDS011;3985;49.366;2.738;2023-07-31T08:29:00;8.00;;;7.00;;
7879;SDS011;3985;49.366;2.738;2023-07-31T08:31:27;5.20;;;5.00;;
7879;SDS011;3985;49.366;2.738;2023-07-31T08:33:55;6.00;;;6.00;;
7879;SDS011;3985;49.366;2.738;2023-07-31T08:36:24;5.20;;;4.80;;
7879;SDS011;3985;49.366;2.738;2023-07-31T08:38:51;7.00;;;7.00;;
7879;SDS011;3985;49.366;2.738;2023-07-31T08:41:18;5.40;;;5.40;;
7879;SDS011;3985;49.366;2.738;2023-07-31T08:43:45;9.20;;;7.40;;
7879;SDS011;3985;49.366;2.738;2023-07-31T08:46:13;7.60;;;7.60;;
7879;SDS011;3985;49.366;2.738;2023-07-31T08:48:41;6.00;;;5.80;;
7879;SDS011;3985;49.366;2.738;2023-07-31T08:51:09;6.00;;;4.60;;
7879;SDS011;3985;49.366;2.738;2023-07-31T08:53:37;6.40;;;6.40;;
7879;SDS011;3985;49.366;2.738;2023-07-31T08:56:04;6.80;;;6.00;;
7879;SDS011;3985;49.366;2.738;2023-07-31T08:58:33;7.80;;;5.00;;
7879;SDS011;3985;49.366;2.738;2023-07-31T09:01:03;7.20;;;5.60;;
7879;SDS011;3985;49.366;2.738;2023-07-31T09:03:33;1.80;;;1.80;;
7879;SDS011;3985;49.366;2.738;2023-07-31T09:06:01;7.60;;;6.00;;
7879;SDS011;3985;49.366;2.738;2023-07-31T09:09:32;6.00;;;6.00;;
7879;SDS011;3985;49.366;2.738;2023-07-31T09:11:59;7.80;;;6.80;;
7879;SDS011;3985;49.366;2.738;2023-07-31T09:14:26;6.00;;;5.60;;
7879;SDS011;3985;49.366;2.738;2023-07-31T09:16:54;5.20;;;5.20;;
7879;SDS011;3985;49.366;2.738;2023-07-31T09:19:26;5.00;;;5.00;;
7879;SDS011;3985;49.366;2.738;2023-07-31T09:21:55;6.40;;;6.00;;
7879;SDS011;3985;49.366;2.738;2023-07-31T09:24:26;6.00;;;6.00;;
7879;SDS011;3985;49.366;2.738;2023-07-31T09:26:56;8.00;;;6.00;;
7879;SDS011;3985;49.366;2.738;2023-07-31T09:29:25;5.20;;;5.20;;
7879;SDS011;3985;49.366;2.738;2023-07-31T09:31:52;4.20;;;4.20;;
7879;SDS011;3985;49.366;2.738;2023-07-31T09:34:20;6.00;;;6.00;;
7879;SDS011;3985;49.366;2.738;2023-07-31T09:36:54;6.00;;;5.80;;
7879;SDS011;3985;49.366;2.738;2023-07-31T09:39:23;9.80;;;5.80;;
7879;SDS011;3985;49.366;2.738;2023-07-31T09:41:53;6.20;;;6.20;;
7879;SDS011;3985;49.366;2.738;2023-07-31T09:44:28;5.60;;;4.40;;
7879;SDS011;3985;49.366;2.738;2023-07-31T09:47:04;4.60;;;4.00;;
7879;SDS011;3985;49.366;2.738;2023-07-31T09:49:32;4.40;;;4.40;;
7879;SDS011;3985;49.366;2.738;2023-07-31T09:51:59;5.00;;;5.00;;
7879;SDS011;3985;49.366;2.738;2023-07-31T09:54:26;5.00;;;4.80;;
7879;SDS011;3985;49.366;2.738;2023-07-31T09:56:53;5.00;;;5.00;;
7879;SDS011;3985;49.366;2.738;2023-07-31T09:59:22;5.80;;;5.80;;
7879;SDS011;3985;49.366;2.738;2023-07-31T10:01:50;7.80;;;5.80;;
7879;SDS011;3985;49.366;2.738;2023-07-31T10:04:20;6.20;;;6.20;;
7879;SDS011;3985;49.366;2.738;2023-07-31T10:06:55;5.60;;;5.60;;
7879;SDS011;3985;49.366;2.738;2023-07-31T10:09:22;5.60;;;5.60;;
7879;SDS011;3985;49.366;2.738;2023-07-31T10:11:53;10.00;;;5.60;;
7879;SDS011;3985;49.366;2.738;2023-07-31T10:14:26;4.80;;;4.80;;
7879;SDS011;3985;49.366;2.738;2023-07-31T10:16:53;5.80;;;4.20;;
7879;SDS011;3985;49.366;2.738;2023-07-31T10:19:21;9.20;;;7.80;;
7879;SDS011;3985;49.366;2.738;2023-07-31T10:21:48;5.20;;;5.20;;
7879;SDS011;3985;49.366;2.738;2023-07-31T10:24:15;6.00;;;6.00;;
7879;SDS011;3985;49.366;2.738;2023-07-31T10:26:43;5.20;;;4.80;;
7879;SDS011;3985;49.366;2.738;2023-07-31T10:29:13;4.60;;;4.60;;
7879;SDS011;3985;49.366;2.738;2023-07-31T10:31:42;4.80;;;4.80;;
7879;SDS011;3985;49.366;2.738;2023-07-31T10:34:10;4.80;;;3.60;;
7879;SDS011;3985;49.366;2.738;2023-07-31T10:36:37;5.40;;;5.40;;
7879;SDS011;3985;49.366;2.738;2023-07-31T10:39:05;5.00;;;5.00;;
7879;SDS011;3985;49.366;2.738;2023-07-31T10:42:09;5.40;;;5.40;;
7879;SDS011;3985;49.366;2.738;2023-07-31T10:44:38;6.40;;;5.40;;
7879;SDS011;3985;49.366;2.738;2023-07-31T10:47:14;9.00;;;5.00;;
7879;SDS011;3985;49.366;2.738;2023-07-31T10:49:44;5.60;;;3.80;;
7879;SDS011;3985;49.366;2.738;2023-07-31T10:52:12;8.40;;;6.60;;
7879;SDS011;3985;49.366;2.738;2023-07-31T10:54:40;7.60;;;5.20;;
7879;SDS011;3985;49.366;2.738;2023-07-31T10:57:18;6.60;;;5.60;;
7879;SDS011;3985;49.366;2.738;2023-07-31T10:59:47;9.20;;;5.80;;
7879;SDS011;3985;49.366;2.738;2023-07-31T11:02:24;4.80;;;3.60;;
7879;SDS011;3985;49.366;2.738;2023-07-31T11:05:05;6.80;;;6.00;;
7879;SDS011;3985;49.366;2.738;2023-07-31T11:07:46;6.40;;;5.80;;
7879;SDS011;3985;49.366;2.738;2023-07-31T11:10:15;5.00;;;4.60;;
7879;SDS011;3985;49.366;2.738;2023-07-31T11:12:44;4.60;;;4.60;;
7879;SDS011;3985;49.366;2.738;2023-07-31T11:15:13;3.50;;;3.50;;
7879;SDS011;3985;49.366;2.738;2023-07-31T11:17:41;5.00;;;5.00;;
7879;SDS011;3985;49.366;2.738;2023-07-31T11:20:08;5.50;;;5.50;;
7879;SDS011;3985;49.366;2.738;2023-07-31T11:22:36;4.40;;;4.40;;
7879;SDS011;3985;49.366;2.738;2023-07-31T11:25:03;7.25;;;6.75;;
7879;SDS011;3985;49.366;2.738;2023-07-31T11:27:38;7.00;;;6.50;;
7879;SDS011;3985;49.366;2.738;2023-07-31T11:30:07;5.00;;;5.00;;
7879;SDS011;3985;49.366;2.738;2023-07-31T11:32:37;7.25;;;6.00;;
7879;SDS011;3985;49.366;2.738;2023-07-31T11:35:04;9.25;;;7.50;;
7879;SDS011;3985;49.366;2.738;2023-07-31T11:37:39;5.50;;;5.25;;
7879;SDS011;3985;49.366;2.738;2023-07-31T11:40:07;6.50;;;6.50;;
7879;SDS011;3985;49.366;2.738;2023-07-31T11:42:37;5.00;;;5.00;;
7879;SDS011;3985;49.366;2.738;2023-07-31T11:45:04;7.00;;;7.00;;
7879;SDS011;3985;49.366;2.738;2023-07-31T11:47:32;5.25;;;3.25;;
7879;SDS011;3985;49.366;2.738;2023-07-31T11:50:02;5.50;;;5.25;;
7879;SDS011;3985;49.366;2.738;2023-07-31T11:52:31;6.75;;;6.00;;
7879;SDS011;3985;49.366;2.738;2023-07-31T11:55:00;6.50;;;6.50;;
7879;SDS011;3985;49.366;2.738;2023-07-31T11:57:27;7.25;;;7.25;;
7879;SDS011;3985;49.366;2.738;2023-07-31T11:59:55;5.50;;;5.50;;
7879;SDS011;3985;49.366;2.738;2023-07-31T12:02:24;7.50;;;7.50;;
7879;SDS011;3985;49.366;2.738;2023-07-31T12:04:51;5.25;;;5.25;;
7879;SDS011;3985;49.366;2.738;2023-07-31T12:07:20;7.50;;;5.00;;
7879;SDS011;3985;49.366;2.738;2023-07-31T12:09:51;6.25;;;6.25;;
7879;SDS011;3985;49.366;2.738;2023-07-31T12:12:22;7.00;;;5.75;;
7879;SDS011;3985;49.366;2.738;2023-07-31T12:14:50;7.00;;;5.25;;
7879;SDS011;3985;49.366;2.738;2023-07-31T12:17:18;5.75;;;5.75;;
7879;SDS011;3985;49.366;2.738;2023-07-31T12:19:48;4.00;;;3.75;;
7879;SDS011;3985;49.366;2.738;2023-07-31T12:22:16;5.25;;;4.00;;
7879;SDS011;3985;49.366;2.738;2023-07-31T12:24:45;6.75;;;6.75;;
7879;SDS011;3985;49.366;2.738;2023-07-31T12:27:12;5.75;;;5.00;;
7879;SDS011;3985;49.366;2.738;2023-07-31T12:29:41;6.50;;;6.50;;
7879;SDS011;3985;49.366;2.738;2023-07-31T12:32:21;8.00;;;6.50;;
7879;SDS011;3985;49.366;2.738;2023-07-31T12:34:50;7.50;;;5.50;;
7879;SDS011;3985;49.366;2.738;2023-07-31T12:37:17;4.50;;;4.50;;
7879;SDS011;3985;49.366;2.738;2023-07-31T12:39:46;7.25;;;5.25;;
7879;SDS011;3985;49.366;2.738;2023-07-31T12:42:13;8.50;;;6.25;;
7879;SDS011;3985;49.366;2.738;2023-07-31T12:44:40;5.25;;;5.25;;
7879;SDS011;3985;49.366;2.738;2023-07-31T12:47:07;5.50;;;4.75;;
7879;SDS011;3985;49.366;2.738;2023-07-31T12:49:34;8.00;;;8.00;;
7879;SDS011;3985;49.366;2.738;2023-07-31T12:52:01;6.75;;;6.50;;
7879;SDS011;3985;49.366;2.738;2023-07-31T12:54:29;8.00;;;6.50;;
7879;SDS011;3985;49.366;2.738;2023-07-31T12:56:57;7.50;;;6.50;;
7879;SDS011;3985;49.366;2.738;2023-07-31T12:59:25;6.67;;;6.00;;
7879;SDS011;3985;49.366;2.738;2023-07-31T13:01:52;7.00;;;5.20;;
7879;SDS011;3985;49.366;2.738;2023-07-31T13:04:19;6.40;;;6.40;;
7879;SDS011;3985;49.366;2.738;2023-07-31T13:06:46;6.20;;;6.20;;
7879;SDS011;3985;49.366;2.738;2023-07-31T13:09:13;6.80;;;6.80;;
7879;SDS011;3985;49.366;2.738;2023-07-31T13:11:42;6.80;;;6.20;;
7879;SDS011;3985;49.366;2.738;2023-07-31T13:14:11;8.80;;;7.00;;
7879;SDS011;3985;49.366;2.738;2023-07-31T13:16:38;6.60;;;6.60;;
7879;SDS011;3985;49.366;2.738;2023-07-31T13:19:05;7.80;;;6.80;;
7879;SDS011;3985;49.366;2.738;2023-07-31T13:21:32;6.25;;;5.25;;
7879;SDS011;3985;49.366;2.738;2023-07-31T13:24:01;7.25;;;6.75;;
7879;SDS011;3985;49.366;2.738;2023-07-31T13:26:31;7.60;;;7.60;;
7879;SDS011;3985;49.366;2.738;2023-07-31T13:28:59;5.00;;;5.00;;
7879;SDS011;3985;49.366;2.738;2023-07-31T13:31:27;7.00;;;7.00;;
7879;SDS011;3985;49.366;2.738;2023-07-31T13:33:55;7.00;;;7.00;;
7879;SDS011;3985;49.366;2.738;2023-07-31T13:36:22;7.75;;;7.75;;
7879;SDS011;3985;49.366;2.738;2023-07-31T13:38:50;6.80;;;5.00;;
7879;SDS011;3985;49.366;2.738;2023-07-31T13:41:17;8.00;;;6.20;;
7879;SDS011;3985;49.366;2.738;2023-07-31T13:43:44;6.20;;;6.20;;
7879;SDS011;3985;49.366;2.738;2023-07-31T13:46:11;7.80;;;7.80;;
7879;SDS011;3985;49.366;2.738;2023-07-31T13:48:40;6.80;;;6.80;;
7879;SDS011;3985;49.366;2.738;2023-07-31T13:51:07;7.20;;;7.20;;
7879;SDS011;3985;49.366;2.738;2023-07-31T13:53:34;9.00;;;9.00;;
7879;SDS011;3985;49.366;2.738;2023-07-31T13:56:01;8.80;;;7.80;;
7879;SDS011;3985;49.366;2.738;2023-07-31T13:58:29;8.60;;;8.60;;
7879;SDS011;3985;49.366;2.738;2023-07-31T14:00:56;10.00;;;6.80;;
7879;SDS011;3985;49.366;2.738;2023-07-31T14:03:23;8.00;;;6.00;;
7879;SDS011;3985;49.366;2.738;2023-07-31T14:05:52;7.80;;;6.20;;
7879;SDS011;3985;49.366;2.738;2023-07-31T14:08:20;8.00;;;8.00;;
7879;SDS011;3985;49.366;2.738;2023-07-31T14:10:47;7.40;;;6.40;;
7879;SDS011;3985;49.366;2.738;2023-07-31T14:13:15;7.40;;;7.00;;
7879;SDS011;3985;49.366;2.738;2023-07-31T14:15:42;6.00;;;5.80;;
7879;SDS011;3985;49.366;2.738;2023-07-31T14:18:09;8.20;;;7.60;;
7879;SDS011;3985;49.366;2.738;2023-07-31T14:20:36;9.80;;;7.00;;
7879;SDS011;3985;49.366;2.738;2023-07-31T14:23:05;7.80;;;7.80;;
7879;SDS011;3985;49.366;2.738;2023-07-31T14:25:32;8.00;;;8.00;;
7879;SDS011;3985;49.366;2.738;2023-07-31T14:28:00;11.20;;;8.80;;
7879;SDS011;3985;49.366;2.738;2023-07-31T14:30:27;6.80;;;6.80;;
7879;SDS011;3985;49.366;2.738;2023-07-31T14:32:55;10.50;;;9.00;;
7879;SDS011;3985;49.366;2.738;2023-07-31T14:35:22;6.00;;;5.80;;
7879;SDS011;3985;49.366;2.738;2023-07-31T14:37:49;6.00;;;6.00;;
7879;SDS011;3985;49.366;2.738;2023-07-31T14:40:17;8.20;;;4.80;;
7879;SDS011;3985;49.366;2.738;2023-07-31T14:42:45;8.40;;;6.60;;
7879;SDS011;3985;49.366;2.738;2023-07-31T14:45:12;7.60;;;6.00;;
7879;SDS011;3985;49.366;2.738;2023-07-31T14:47:40;5.00;;;5.00;;
7879;SDS011;3985;49.366;2.738;2023-07-31T14:50:07;6.60;;;6.60;;
7879;SDS011;3985;49.366;2.738;2023-07-31T14:52:35;5.00;;;4.00;;
7879;SDS011;3985;49.366;2.738;2023-07-31T14:55:02;5.60;;;5.60;;
7879;SDS011;3985;49.366;2.738;2023-07-31T14:57:32;7.00;;;6.60;;
7879;SDS011;3985;49.366;2.738;2023-07-31T14:59:59;6.00;;;6.00;;
7879;SDS011;3985;49.366;2.738;2023-07-31T15:02:26;5.00;;;3.60;;
7879;SDS011;3985;49.366;2.738;2023-07-31T15:04:53;6.20;;;6.20;;
7879;SDS011;3985;49.366;2.738;2023-07-31T15:07:21;3.20;;;3.20;;
7879;SDS011;3985;49.366;2.738;2023-07-31T15:09:48;6.00;;;6.00;;
7879;SDS011;3985;49.366;2.738;2023-07-31T15:12:15;6.00;;;6.00;;
7879;SDS011;3985;49.366;2.738;2023-07-31T15:14:44;8.80;;;6.00;;
7879;SDS011;3985;49.366;2.738;2023-07-31T15:17:11;4.60;;;4.60;;
7879;SDS011;3985;49.366;2.738;2023-07-31T15:19:40;6.20;;;6.20;;
7879;SDS011;3985;49.366;2.738;2023-07-31T15:22:07;7.00;;;7.00;;